createdAt,value
2023-04-18T00:01:52.014Z,91.74
2023-04-18T00:04:19.587Z,92.24
2023-04-18T00:06:47.573Z,91.79
2023-04-18T00:09:14.351Z,91.68
2023-04-18T00:11:41.192Z,91.54
2023-04-18T00:14:08.814Z,90.89
2023-04-18T00:16:36.438Z,90.70
2023-04-18T00:19:04.747Z,91.05
2023-04-18T00:21:32.407Z,90.39
2023-04-18T00:23:59.323Z,90.17
2023-04-18T00:26:26.916Z,90.74
2023-04-18T00:28:57.017Z,91.93
2023-04-18T00:31:23.939Z,91.32
2023-04-18T00:33:50.973Z,91.81
2023-04-18T00:36:17.739Z,92.35
2023-04-18T00:38:44.485Z,92.10
2023-04-18T00:41:11.231Z,92.75
2023-04-18T00:43:38.014Z,91.96
2023-04-18T00:46:04.817Z,91.84
2023-04-18T00:48:31.909Z,91.67
2023-04-18T00:51:00.573Z,91.33
2023-04-18T00:53:27.596Z,92.15
2023-04-18T00:55:55.099Z,92.03
2023-04-18T00:58:22.194Z,91.39
2023-04-18T01:00:48.907Z,91.17
2023-04-18T01:03:21.066Z,91.06
2023-04-18T01:05:47.860Z,90.78
2023-04-18T01:08:14.981Z,91.50
2023-04-18T01:10:41.887Z,91.35
2023-04-18T01:13:17.000Z,92.07
2023-04-18T01:15:45.354Z,91.67
2023-04-18T01:18:13.474Z,91.57
2023-04-18T01:20:44.131Z,91.14
2023-04-18T01:23:10.993Z,91.38
2023-04-18T01:25:38.040Z,91.06
2023-04-18T01:28:06.473Z,91.22
2023-04-18T01:30:34.288Z,92.21
2023-04-18T01:33:02.711Z,91.23
2023-04-18T01:35:29.845Z,91.74
2023-04-18T01:37:57.502Z,91.08
2023-04-18T01:40:24.869Z,91.27
2023-04-18T01:42:51.755Z,92.05
2023-04-18T01:45:22.693Z,92.05
2023-04-18T01:47:49.669Z,91.79
2023-04-18T01:50:16.518Z,92.28
2023-04-18T01:52:43.411Z,92.43
2023-04-18T01:55:10.617Z,92.43
2023-04-18T01:57:37.361Z,93.10
2023-04-18T02:00:06.536Z,92.82
2023-04-18T02:02:33.572Z,92.91
2023-04-18T02:05:00.514Z,92.12
2023-04-18T02:07:27.301Z,92.48
2023-04-18T02:09:54.120Z,92.99
2023-04-18T02:12:21.220Z,93.36
2023-04-18T02:14:51.948Z,93.29
2023-04-18T02:17:19.720Z,94.01
2023-04-18T02:19:46.869Z,94.55
2023-04-18T02:22:13.630Z,94.47
2023-04-18T02:24:40.489Z,94.55
2023-04-18T02:27:07.217Z,95.00
2023-04-18T02:29:33.944Z,93.95
2023-04-18T02:32:00.726Z,94.19
2023-04-18T02:34:27.452Z,94.79
2023-04-18T02:36:54.230Z,95.99
2023-04-18T02:39:21.271Z,95.70
2023-04-18T02:41:48.037Z,94.05
2023-04-18T02:44:15.122Z,93.70
2023-04-18T02:46:42.079Z,93.55
2023-04-18T02:49:08.805Z,93.35
2023-04-18T02:51:35.734Z,93.59
2023-04-18T02:54:02.495Z,94.18
2023-04-18T02:56:29.243Z,93.67
2023-04-18T02:58:56.010Z,94.03
2023-04-18T03:01:22.811Z,93.74
2023-04-18T03:03:49.556Z,94.46
2023-04-18T03:06:16.418Z,94.23
2023-04-18T03:08:43.227Z,93.96
2023-04-18T03:11:10.077Z,94.11
2023-04-18T03:13:37.080Z,93.54
2023-04-18T03:16:04.068Z,93.47
2023-04-18T03:18:30.889Z,93.45
2023-04-18T03:20:57.710Z,94.35
2023-04-18T03:23:24.753Z,93.62
2023-04-18T03:25:51.932Z,92.61
2023-04-18T03:28:18.745Z,93.26
2023-04-18T03:30:48.259Z,93.22
2023-04-18T03:33:17.323Z,93.29
2023-04-18T03:35:44.111Z,92.77
2023-04-18T03:38:11.085Z,92.52
2023-04-18T03:40:37.835Z,92.11
2023-04-18T03:43:04.570Z,92.80
2023-04-18T03:45:31.501Z,92.22
2023-04-18T03:47:58.345Z,92.12
2023-04-18T03:50:26.080Z,92.20
2023-04-18T03:52:53.149Z,92.38
2023-04-18T03:55:20.883Z,92.27
2023-04-18T03:57:48.237Z,92.21
2023-04-18T04:00:18.256Z,92.42
2023-04-18T04:02:45.364Z,92.54
2023-04-18T04:05:12.244Z,92.47
2023-04-18T04:07:39.089Z,92.74
2023-04-18T04:10:06.581Z,92.60
2023-04-18T04:12:33.279Z,92.24
2023-04-18T04:15:00.056Z,91.31
2023-04-18T04:17:26.936Z,91.61
2023-04-18T04:19:53.697Z,91.71
2023-04-18T04:22:20.496Z,91.64
2023-04-18T04:24:47.793Z,91.70
2023-04-18T04:27:14.544Z,91.34
2023-04-18T04:29:41.809Z,91.53
2023-04-18T04:32:08.701Z,90.84
2023-04-18T04:34:36.043Z,91.01
2023-04-18T04:37:03.603Z,90.84
2023-04-18T04:39:30.563Z,91.26
2023-04-18T04:42:01.547Z,91.13
2023-04-18T04:44:28.587Z,91.16
2023-04-18T04:46:55.315Z,90.94
2023-04-18T04:49:22.323Z,90.77
2023-04-18T04:51:49.254Z,90.51
2023-04-18T04:54:16.410Z,91.00
2023-04-18T04:56:43.413Z,90.77
2023-04-18T04:59:10.264Z,90.28
2023-04-18T05:01:37.120Z,90.42
2023-04-18T05:04:04.200Z,89.81
2023-04-18T05:06:31.482Z,90.05
2023-04-18T05:08:59.803Z,89.96
2023-04-18T05:11:27.193Z,90.02
2023-04-18T05:13:54.264Z,90.10
2023-04-18T05:16:21.198Z,89.86
2023-04-18T05:18:47.969Z,90.25
2023-04-18T05:21:14.709Z,90.24
2023-04-18T05:23:41.512Z,89.85
2023-04-18T05:26:08.449Z,89.79
2023-04-18T05:28:35.252Z,90.38
2023-04-18T05:31:02.493Z,89.96
2023-04-18T05:33:30.360Z,89.75
2023-04-18T05:35:57.997Z,89.82
2023-04-18T05:38:24.864Z,90.99
2023-04-18T05:40:51.708Z,90.78
2023-04-18T05:43:19.911Z,90.45
2023-04-18T05:45:47.343Z,89.65
2023-04-18T05:48:14.778Z,89.17
2023-04-18T05:50:41.558Z,90.08
2023-04-18T05:53:08.400Z,89.18
2023-04-18T05:55:35.200Z,89.21
2023-04-18T05:58:01.914Z,89.80
2023-04-18T06:00:28.747Z,89.96
2023-04-18T06:02:55.679Z,89.92
2023-04-18T06:05:22.830Z,90.02
2023-04-18T06:07:49.806Z,88.75
2023-04-18T06:10:16.612Z,89.43
2023-04-18T06:12:43.406Z,90.02
2023-04-18T06:15:11.012Z,90.21
2023-04-18T06:17:37.786Z,88.96
2023-04-18T06:20:06.458Z,89.35
2023-04-18T06:22:34.346Z,88.63
2023-04-18T06:25:01.153Z,88.80
2023-04-18T06:27:31.399Z,89.13
2023-04-18T06:29:58.826Z,87.98
2023-04-18T06:32:26.273Z,87.93
2023-04-18T06:34:53.415Z,87.66
2023-04-18T06:37:20.933Z,87.98
2023-04-18T06:39:47.831Z,87.65
2023-04-18T06:42:14.592Z,87.19
2023-04-18T06:44:43.264Z,87.65
2023-04-18T06:47:11.021Z,87.80
2023-04-18T06:49:37.841Z,87.88
2023-04-18T06:52:04.726Z,87.20
2023-04-18T06:54:31.475Z,87.18
2023-04-18T06:56:58.725Z,87.65
2023-04-18T06:59:25.570Z,86.85
2023-04-18T07:01:52.343Z,87.07
2023-04-18T07:04:19.362Z,86.47
2023-04-18T07:06:46.509Z,86.27
2023-04-18T07:09:13.258Z,85.78
2023-04-18T07:11:40.897Z,85.08
2023-04-18T07:14:07.650Z,83.60
2023-04-18T07:16:34.827Z,83.73
2023-04-18T07:19:01.612Z,83.26
2023-04-18T07:21:28.582Z,83.25
2023-04-18T07:23:55.570Z,83.04
2023-04-18T07:26:22.465Z,80.79
2023-04-18T07:28:49.614Z,80.48
2023-04-18T07:31:16.875Z,80.05
2023-04-18T07:33:46.657Z,79.06
2023-04-18T07:36:13.407Z,79.26
2023-04-18T07:38:40.350Z,78.80
2023-04-18T07:41:07.167Z,79.70
2023-04-18T07:43:33.933Z,79.36
2023-04-18T07:46:01.376Z,79.70
2023-04-18T07:48:28.210Z,80.39
2023-04-18T07:50:54.984Z,79.81
2023-04-18T07:53:21.789Z,78.26
2023-04-18T07:55:48.611Z,77.91
2023-04-18T07:58:15.846Z,77.24
2023-04-18T08:00:44.958Z,77.73
2023-04-18T08:03:13.233Z,79.09
2023-04-18T08:05:41.544Z,77.36
2023-04-18T08:08:10.258Z,75.90
2023-04-18T08:10:37.735Z,77.53
2023-04-18T08:13:04.796Z,77.54
2023-04-18T08:15:33.062Z,77.42
2023-04-18T08:18:00.621Z,76.94
2023-04-18T08:20:27.771Z,77.96
2023-04-18T08:23:05.226Z,78.63
2023-04-18T08:25:36.552Z,77.93
2023-04-18T08:28:04.325Z,77.71
2023-04-18T08:30:31.502Z,78.17
2023-04-18T08:33:00.501Z,76.99
2023-04-18T08:35:27.610Z,77.36
2023-04-18T08:37:54.494Z,76.22
2023-04-18T08:40:21.749Z,76.75
2023-04-18T08:42:49.490Z,77.20
2023-04-18T08:45:18.167Z,77.13
2023-04-18T08:47:45.026Z,75.27
2023-04-18T08:50:12.900Z,75.74
2023-04-18T08:52:45.249Z,73.23
2023-04-18T08:55:11.989Z,70.08
2023-04-18T08:57:38.880Z,69.74
2023-04-18T09:00:10.265Z,70.40
2023-04-18T09:02:47.347Z,69.68
2023-04-18T09:05:16.780Z,69.31
2023-04-18T09:07:43.559Z,70.62
2023-04-18T09:10:11.093Z,72.36
2023-04-18T09:12:44.874Z,72.25
2023-04-18T09:15:17.229Z,72.39
2023-04-18T09:17:49.576Z,73.01
2023-04-18T09:20:43.892Z,72.85
2023-04-18T09:23:14.888Z,72.70
2023-04-18T09:25:44.568Z,71.54
2023-04-18T09:28:33.307Z,72.79
2023-04-18T09:31:13.154Z,68.88
2023-04-18T09:33:45.047Z,67.43
2023-04-18T09:36:28.996Z,67.87
2023-04-18T09:38:56.927Z,68.23
2023-04-18T09:41:24.627Z,68.71
2023-04-18T09:44:11.554Z,67.29
2023-04-18T09:46:40.371Z,65.85
2023-04-18T09:49:09.580Z,64.27
2023-04-18T09:51:40.531Z,64.10
2023-04-18T09:54:11.080Z,62.80
2023-04-18T09:56:41.817Z,65.96
2023-04-18T09:59:10.132Z,64.11
2023-04-18T10:01:37.755Z,61.26
2023-04-18T10:04:07.036Z,61.06
2023-04-18T10:06:35.045Z,61.89
2023-04-18T10:09:04.909Z,63.43
2023-04-18T10:11:32.448Z,62.98
2023-04-18T10:14:05.050Z,64.41
2023-04-18T10:16:34.844Z,64.49
2023-04-18T10:19:26.438Z,63.51
2023-04-18T10:21:53.894Z,64.51
2023-04-18T10:24:54.130Z,63.56
2023-04-18T10:27:49.056Z,62.66
2023-04-18T10:30:17.112Z,62.87
2023-04-18T10:32:46.252Z,63.21
2023-04-18T10:35:13.130Z,63.51
2023-04-18T10:38:00.149Z,64.11
2023-04-18T10:40:34.625Z,63.88
2023-04-18T10:43:01.708Z,64.13
2023-04-18T10:45:31.220Z,63.79
2023-04-18T10:48:29.775Z,65.02
2023-04-18T10:51:16.060Z,65.40
2023-04-18T10:54:04.405Z,64.97
2023-04-18T10:56:31.247Z,65.87
2023-04-18T10:59:03.887Z,65.40
2023-04-18T11:01:33.302Z,66.41
2023-04-18T11:04:00.739Z,65.89
2023-04-18T11:06:28.282Z,66.00
2023-04-18T11:09:14.663Z,65.84
2023-04-18T11:11:42.054Z,63.72
2023-04-18T11:14:09.315Z,60.93
2023-04-18T11:16:36.783Z,59.84
2023-04-18T11:19:21.156Z,61.65
2023-04-18T11:21:48.020Z,61.34
2023-04-18T11:24:23.107Z,61.74
2023-04-18T11:26:50.168Z,61.99
2023-04-18T11:29:18.662Z,60.77
2023-04-18T11:31:57.768Z,60.97
2023-04-18T11:34:30.899Z,61.64
2023-04-18T11:36:58.095Z,62.94
2023-04-18T11:39:25.020Z,63.37
2023-04-18T11:41:52.061Z,62.54
2023-04-18T11:44:24.145Z,62.75
2023-04-18T11:46:51.674Z,62.59
2023-04-18T11:49:32.656Z,60.22
2023-04-18T11:52:01.356Z,59.42
2023-04-18T11:54:46.146Z,58.39
2023-04-18T11:57:20.360Z,57.74
2023-04-18T11:59:52.250Z,56.36
2023-04-18T12:02:21.007Z,56.14
2023-04-18T12:04:52.985Z,54.69
2023-04-18T12:07:32.108Z,55.53
2023-04-18T12:09:59.199Z,55.28
2023-04-18T12:12:26.229Z,56.41
2023-04-18T12:15:00.795Z,57.03
2023-04-18T12:17:28.327Z,57.21
2023-04-18T12:19:55.766Z,56.53
2023-04-18T12:22:40.273Z,57.48
2023-04-18T12:25:11.022Z,56.02
2023-04-18T12:27:48.331Z,53.74
2023-04-18T12:30:16.079Z,53.68
2023-04-18T12:32:45.080Z,53.32
2023-04-18T12:35:11.953Z,50.34
2023-04-18T12:37:38.675Z,48.98
2023-04-18T12:40:07.360Z,51.45
2023-04-18T12:42:34.504Z,51.14
2023-04-18T12:45:03.499Z,51.12
2023-04-18T12:47:30.435Z,47.80
2023-04-18T12:49:57.204Z,47.85
2023-04-18T12:52:24.029Z,48.71
2023-04-18T12:54:51.003Z,49.09
2023-04-18T12:57:17.869Z,47.23
2023-04-18T12:59:44.772Z,47.85
2023-04-18T13:02:11.762Z,45.96
2023-04-18T13:04:38.892Z,46.55
2023-04-18T13:07:06.394Z,43.95
2023-04-18T13:09:34.136Z,44.43
2023-04-18T13:12:01.068Z,46.44
2023-04-18T13:14:27.986Z,47.42
2023-04-18T13:16:54.948Z,47.11
2023-04-18T13:19:21.748Z,46.55
2023-04-18T13:21:49.658Z,45.75
2023-04-18T13:24:16.674Z,46.48
2023-04-18T13:26:43.905Z,50.00
2023-04-18T13:29:10.688Z,50.78
2023-04-18T13:31:37.529Z,49.98
2023-04-18T13:34:04.333Z,47.69
2023-04-18T13:36:32.058Z,46.87
2023-04-18T13:38:59.294Z,47.10
2023-04-18T13:41:26.080Z,46.58
2023-04-18T13:43:53.097Z,46.23
2023-04-18T13:46:23.777Z,46.73
2023-04-18T13:48:50.561Z,46.92
2023-04-18T13:51:20.514Z,45.94
2023-04-18T13:53:47.489Z,46.96
2023-04-18T13:56:14.598Z,45.81
2023-04-18T13:58:41.336Z,46.06
2023-04-18T14:01:11.525Z,48.49
2023-04-18T14:03:39.918Z,47.93
2023-04-18T14:06:08.384Z,49.82
2023-04-18T14:08:35.323Z,50.99
2023-04-18T14:11:02.069Z,52.68
2023-04-18T14:13:28.864Z,52.64
2023-04-18T14:15:55.814Z,54.58
2023-04-18T14:18:23.851Z,53.91
2023-04-18T14:20:51.558Z,54.21
2023-04-18T14:23:19.054Z,54.83
2023-04-18T14:25:45.961Z,55.16
2023-04-18T14:28:12.758Z,54.57
2023-04-18T14:30:40.180Z,55.04
2023-04-18T14:33:09.789Z,55.68
2023-04-18T14:35:36.736Z,56.28
2023-04-18T14:38:03.776Z,56.83
2023-04-18T14:40:32.753Z,56.87
2023-04-18T14:42:59.904Z,57.36
2023-04-18T14:45:26.661Z,56.90
2023-04-18T14:47:55.858Z,58.13
2023-04-18T14:50:22.966Z,57.60
2023-04-18T14:52:49.700Z,57.39
2023-04-18T14:55:16.600Z,57.46
2023-04-18T14:57:43.362Z,56.96
2023-04-18T15:00:13.273Z,57.78
2023-04-18T15:02:41.101Z,58.26
2023-04-18T15:05:08.845Z,54.54
2023-04-18T15:07:37.757Z,51.75
2023-04-18T15:10:05.354Z,52.78
2023-04-18T15:12:33.196Z,53.81
2023-04-18T15:15:00.693Z,56.33
2023-04-18T15:17:28.348Z,56.80
2023-04-18T15:19:55.159Z,57.77
2023-04-18T15:22:22.154Z,58.37
2023-04-18T15:24:49.196Z,56.24
2023-04-18T15:27:16.042Z,56.69
2023-04-18T15:29:42.905Z,58.36
2023-04-18T15:32:10.496Z,58.56
2023-04-18T15:34:37.421Z,58.14
2023-04-18T15:37:04.851Z,58.81
2023-04-18T15:39:31.707Z,59.58
2023-04-18T15:41:58.486Z,60.51
2023-04-18T15:44:25.500Z,61.07
2023-04-18T15:46:52.305Z,61.52
2023-04-18T15:49:19.137Z,61.77
2023-04-18T15:51:46.077Z,62.49
2023-04-18T15:54:13.082Z,62.56
2023-04-18T15:56:39.994Z,63.21
2023-04-18T15:59:07.456Z,64.00
2023-04-18T16:01:35.846Z,64.11
2023-04-18T16:04:03.047Z,65.07
2023-04-18T16:06:33.528Z,64.72
2023-04-18T16:09:00.332Z,64.84
2023-04-18T16:11:28.022Z,65.36
2023-04-18T16:13:56.231Z,65.50
2023-04-18T16:16:26.898Z,65.39
2023-04-18T16:18:53.907Z,65.44
2023-04-18T16:21:21.242Z,65.43
2023-04-18T16:23:49.040Z,66.37
2023-04-18T16:26:16.020Z,66.60
2023-04-18T16:28:42.900Z,66.80
2023-04-18T16:31:09.991Z,67.64
2023-04-18T16:33:37.051Z,68.67
2023-04-18T16:36:04.808Z,69.34
2023-04-18T16:38:32.265Z,69.01
2023-04-18T16:41:01.385Z,68.52
2023-04-18T16:43:30.022Z,68.73
2023-04-18T16:45:58.042Z,69.19
2023-04-18T16:48:29.417Z,68.06
2023-04-18T16:50:56.694Z,69.23
2023-04-18T16:53:24.537Z,69.86
2023-04-18T16:55:52.419Z,70.41
2023-04-18T16:58:21.543Z,70.18
2023-04-18T17:00:48.577Z,70.75
2023-04-18T17:03:15.882Z,71.55
2023-04-18T17:05:42.863Z,71.03
2023-04-18T17:08:12.777Z,71.53
2023-04-18T17:10:43.059Z,71.92
2023-04-18T17:13:09.925Z,72.15
2023-04-18T17:15:37.288Z,72.31
2023-04-18T17:18:04.460Z,72.48
2023-04-18T17:20:31.542Z,73.07
2023-04-18T17:22:58.966Z,73.07
2023-04-18T17:25:26.401Z,73.57
2023-04-18T17:27:53.388Z,73.70
2023-04-18T17:30:20.765Z,73.83
2023-04-18T17:32:51.031Z,74.16
2023-04-18T17:35:18.367Z,74.63
2023-04-18T17:37:47.851Z,74.02
2023-04-18T17:40:15.407Z,74.79
2023-04-18T17:42:42.864Z,75.02
2023-04-18T17:45:10.424Z,75.47
2023-04-18T17:47:37.941Z,75.34
2023-04-18T17:50:05.483Z,75.79
2023-04-18T17:52:32.843Z,76.15
2023-04-18T17:55:01.840Z,76.50
2023-04-18T17:57:31.300Z,76.56
2023-04-18T17:59:59.464Z,76.81
2023-04-18T18:02:28.913Z,76.84
2023-04-18T18:04:56.692Z,77.08
2023-04-18T18:07:23.916Z,77.46
2023-04-18T18:09:53.917Z,77.84
2023-04-18T18:12:22.082Z,77.90
2023-04-18T18:14:50.974Z,78.42
2023-04-18T18:17:23.492Z,78.58
2023-04-18T18:19:56.031Z,78.72
2023-04-18T18:22:26.956Z,78.60
2023-04-18T18:24:54.015Z,78.20
2023-04-18T18:27:21.140Z,78.40
2023-04-18T18:29:51.364Z,78.32
2023-04-18T18:32:18.962Z,78.90
2023-04-18T18:34:46.426Z,78.98
2023-04-18T18:37:13.596Z,79.29
2023-04-18T18:39:41.902Z,79.51
2023-04-18T18:42:10.782Z,79.79
2023-04-18T18:44:39.422Z,79.94
2023-04-18T18:47:07.655Z,80.04
2023-04-18T18:49:37.132Z,80.43
2023-04-18T18:52:06.164Z,80.57
2023-04-18T18:54:33.656Z,80.84
2023-04-18T18:57:04.147Z,81.09
2023-04-18T18:59:32.761Z,81.16
2023-04-18T19:01:59.995Z,81.33
2023-04-18T19:04:28.019Z,81.67
2023-04-18T19:06:56.877Z,82.06
2023-04-18T19:09:24.014Z,82.29
2023-04-18T19:11:51.825Z,82.13
2023-04-18T19:14:19.147Z,82.57
2023-04-18T19:16:46.560Z,82.81
2023-04-18T19:19:15.598Z,82.50
2023-04-18T19:21:46.212Z,82.45
2023-04-18T19:24:13.702Z,82.62
2023-04-18T19:26:42.124Z,83.03
2023-04-18T19:29:11.097Z,83.19
2023-04-18T19:31:38.134Z,83.27
2023-04-18T19:34:05.252Z,83.60
2023-04-18T19:36:32.290Z,83.94
2023-04-18T19:38:59.177Z,84.21
2023-04-18T19:41:26.471Z,84.55
2023-04-18T19:43:57.035Z,84.85
2023-04-18T19:46:27.017Z,85.04
2023-04-18T19:48:57.314Z,85.16
2023-04-18T19:51:25.035Z,85.96
2023-04-18T19:53:55.881Z,85.76
2023-04-18T19:56:23.309Z,86.09
2023-04-18T19:58:50.474Z,86.28
2023-04-18T20:01:22.647Z,86.20
2023-04-18T20:03:49.760Z,86.40
2023-04-18T20:06:18.086Z,86.55
2023-04-18T20:08:46.297Z,86.48
2023-04-18T20:11:16.877Z,86.37
2023-04-18T20:13:43.695Z,86.29
2023-04-18T20:16:14.253Z,86.38
2023-04-18T20:18:41.974Z,86.43
2023-04-18T20:21:10.247Z,86.23
2023-04-18T20:23:37.838Z,86.28
2023-04-18T20:26:04.844Z,86.79
2023-04-18T20:28:32.336Z,86.06
2023-04-18T20:30:59.594Z,85.70
2023-04-18T20:33:26.699Z,85.63
2023-04-18T20:35:54.866Z,85.67
2023-04-18T20:38:26.163Z,85.84
2023-04-18T20:40:53.540Z,85.84
2023-04-18T20:43:20.809Z,85.57
2023-04-18T20:45:54.668Z,85.91
2023-04-18T20:48:21.522Z,85.25
2023-04-18T20:50:51.683Z,85.42
2023-04-18T20:53:26.387Z,85.56
2023-04-18T20:55:53.582Z,85.25
2023-04-18T20:58:20.756Z,85.35
2023-04-18T21:00:49.122Z,85.22
2023-04-18T21:03:17.059Z,85.49
2023-04-18T21:05:47.525Z,85.24
2023-04-18T21:08:14.348Z,85.69
2023-04-18T21:10:41.398Z,85.43
2023-04-18T21:13:09.434Z,85.33
2023-04-18T21:15:36.317Z,85.53
2023-04-18T21:18:03.155Z,85.74
2023-04-18T21:20:30.026Z,85.72
2023-04-18T21:22:56.841Z,86.02
2023-04-18T21:25:23.613Z,85.71
2023-04-18T21:27:51.007Z,85.89
2023-04-18T21:30:17.875Z,86.39
2023-04-18T21:32:46.170Z,86.62
2023-04-18T21:35:13.461Z,86.50
2023-04-18T21:37:40.257Z,86.76
2023-04-18T21:40:07.841Z,86.96
2023-04-18T21:42:35.720Z,86.88
2023-04-18T21:45:02.695Z,87.18
2023-04-18T21:47:29.490Z,86.75
2023-04-18T21:49:56.273Z,87.10
2023-04-18T21:52:23.182Z,87.05
2023-04-18T21:54:49.962Z,86.88
2023-04-18T21:57:16.862Z,87.12
2023-04-18T21:59:43.703Z,87.16
2023-04-18T22:02:10.523Z,86.84
2023-04-18T22:04:38.261Z,87.05
2023-04-18T22:07:05.091Z,86.85
2023-04-18T22:09:34.567Z,87.05
2023-04-18T22:12:03.711Z,87.11
2023-04-18T22:14:34.272Z,87.04
2023-04-18T22:17:03.664Z,87.15
2023-04-18T22:19:31.552Z,87.22
2023-04-18T22:21:58.711Z,87.13
2023-04-18T22:24:26.236Z,86.97
2023-04-18T22:26:53.866Z,87.58
2023-04-18T22:29:20.699Z,87.55
2023-04-18T22:31:47.722Z,87.52
2023-04-18T22:34:14.721Z,87.30
2023-04-18T22:36:42.947Z,87.51
2023-04-18T22:39:09.923Z,87.42
2023-04-18T22:41:36.885Z,87.62
2023-04-18T22:44:06.549Z,87.53
2023-04-18T22:46:33.539Z,87.63
2023-04-18T22:49:00.887Z,87.70
2023-04-18T22:51:29.018Z,87.75
2023-04-18T22:53:56.594Z,87.82
2023-04-18T22:56:25.281Z,87.92
2023-04-18T22:58:52.309Z,88.29
2023-04-18T23:01:19.175Z,88.07
2023-04-18T23:03:46.118Z,88.15
2023-04-18T23:06:13.172Z,88.43
2023-04-18T23:08:40.097Z,88.61
2023-04-18T23:11:06.816Z,88.69
2023-04-18T23:13:33.578Z,88.66
2023-04-18T23:16:00.471Z,88.94
2023-04-18T23:18:30.215Z,89.22
2023-04-18T23:20:56.991Z,89.47
2023-04-18T23:23:23.789Z,89.86
2023-04-18T23:25:50.553Z,89.95
2023-04-18T23:28:17.687Z,90.13
2023-04-18T23:30:44.665Z,90.54
2023-04-18T23:33:11.603Z,90.67
2023-04-18T23:35:38.323Z,90.88
2023-04-18T23:38:07.601Z,90.99
2023-04-18T23:40:35.341Z,91.13
2023-04-18T23:43:04.869Z,91.33
2023-04-18T23:45:31.873Z,91.41
2023-04-18T23:47:58.656Z,91.70
2023-04-18T23:50:25.698Z,91.58
2023-04-18T23:52:52.479Z,91.25
2023-04-18T23:55:19.256Z,91.45
2023-04-18T23:57:46.074Z,91.24
